METAR Data
IDs: Format: Raw Decoded Include TAF

Data at: 1853 UTC 14 Dec 2018

KDUX 141835Z AUTO 36010G14KT 10SM CLR 08/M13 A3031 RMK AO2 T00831126
KDUX 141815Z AUTO 35010KT 10SM CLR 08/M12 A3032 RMK AO2 T00801123
KDUX 141755Z AUTO 36010G14KT 10SM CLR 07/M12 A3033 RMK AO2 T00711121 10073 21078
KDUX 141735Z AUTO 36010KT 10SM CLR 07/M12 A3035 RMK AO2 T00691120
KDUX 141715Z AUTO 36011KT 10SM CLR 06/M12 A3034 RMK AO2 T00611118
KDUX 141655Z AUTO 01011KT 10SM CLR 06/M12 A3034 RMK AO2 T00561121
KDUX 141635Z AUTO 36009G15KT 10SM CLR 05/M12 A3034 RMK AO2 T00461122
KDUX 141615Z AUTO 35008KT 10SM CLR 03/M12 A3033 RMK AO2 T00321122
KDUX 141555Z AUTO 34010KT 10SM CLR 01/M13 A3032 RMK AO2 T00141127
KDUX 141535Z AUTO 32012G16KT 10SM CLR 00/M13 A3031 RMK AO2 T00001130
KDUX 141515Z AUTO 32012KT 10SM CLR M01/M13 A3031 RMK AO2 T10131130
KDUX 141455Z AUTO 32010KT 10SM CLR M03/M13 A3030 RMK AO2 T10301129
KDUX 141435Z AUTO 31010KT 10SM CLR M05/M13 A3030 RMK AO2 T10511135
KDUX 141415Z AUTO 29009KT 10SM CLR M07/M14 A3030 RMK AO2 T10661139
KDUX 141355Z AUTO 29009KT 10SM CLR M07/M14 A3030 RMK AO2 T10721140
KDUX 141335Z AUTO 30010KT 10SM CLR M08/M14 A3029 RMK AO2 T10781140
KDUX 141315Z AUTO 29010KT 10SM CLR M07/M14 A3029 RMK AO2 T10721140
KDUX 141255Z AUTO 30010KT 10SM CLR M07/M14 A3028 RMK AO2 T10721140
KDUX 141235Z AUTO 29007KT 10SM CLR M07/M14 A3027 RMK AO2 T10731139
KDUX 141215Z AUTO 30008KT 10SM CLR M07/M14 A3027 RMK AO2 T10661139
KDUX 141155Z AUTO 30010KT 10SM CLR M06/M14 A3026 RMK AO2 T10651136 11052 21075
KDUX 141135Z AUTO 31010KT 10SM CLR M06/M14 A3026 RMK AO2 T10651137
KDUX 141115Z AUTO 31010KT 10SM CLR M07/M14 A3026 RMK AO2 T10721137
KDUX 141055Z AUTO 30011KT 10SM CLR M07/M14 A3026 RMK AO2 T10741137
KDUX 141035Z AUTO 31010KT 10SM CLR M07/M14 A3025 RMK AO2 T10711136
KDUX 141015Z AUTO 31010KT 10SM CLR M07/M13 A3025 RMK AO2 T10701134
KDUX 140955Z AUTO 31009KT 10SM CLR M07/M13 A3025 RMK AO2 T10701132
KDUX 140935Z AUTO 31010KT 10SM CLR M07/M13 A3025 RMK AO2 T10671130
KDUX 140915Z AUTO 31012KT 10SM CLR M06/M13 A3025 RMK AO2 T10651130
KDUX 140855Z AUTO 31012KT 10SM CLR M07/M13 A3025 RMK AO2 T10681130
KDUX 140835Z AUTO 31012KT 10SM CLR M06/M13 A3025 RMK AO2 T10651127
KDUX 140815Z AUTO 31011KT 10SM CLR M06/M13 A3025 RMK AO2 T10611129
KDUX 140755Z AUTO 31011KT 10SM CLR M07/M13 A3025 RMK AO2 T10661130
KDUX 140735Z AUTO 31010KT 10SM CLR M06/M13 A3026 RMK AO2 T10651131
KDUX 140715Z AUTO 32011KT 10SM CLR M06/M13 A3026 RMK AO2 T10561131
KDUX 140655Z AUTO 32011KT 10SM CLR M05/M13 A3026 RMK AO2 T10541131
KDUX 140635Z AUTO 32011KT 10SM CLR M06/M13 A3026 RMK AO2 T10561130
KDUX 140615Z AUTO 33009KT 10SM CLR M06/M13 A3026 RMK AO2 T10581131
KDUX 140555Z AUTO 34009KT 10SM CLR M05/M13 A3025 RMK AO2 T10531132 10031 21061 400691061
KDUX 140535Z AUTO 32009KT 10SM CLR M06/M13 A3025 RMK AO2 T10601134
KDUX 140515Z AUTO 31008KT 10SM CLR M05/M13 A3025 RMK AO2 T10491133
KDUX 140455Z AUTO 33011KT 10SM CLR M05/M13 A3024 RMK AO2 T10511130
KDUX 140435Z AUTO 34009KT 10SM CLR M05/M13 A3024 RMK AO2 T10501132
KDUX 140415Z AUTO 35008KT 10SM CLR M04/M13 A3023 RMK AO2 T10401132
KDUX 140355Z AUTO 34011KT 10SM CLR M03/M13 A3022 RMK AO2 T10261132
KDUX 140335Z AUTO 33015KT 10SM CLR M02/M13 A3021 RMK AO2 T10181130
KDUX 140315Z AUTO 33015KT 10SM CLR M02/M13 A3020 RMK AO2 T10181130
KDUX 140255Z AUTO 33012KT 10SM CLR M02/M13 A3020 RMK AO2 T10191131
KDUX 140235Z AUTO 33011KT 10SM CLR M01/M13 A3020 RMK AO2 T10151131
KDUX 140215Z AUTO 34013KT 10SM CLR M01/M13 A3019 RMK AO2 T10101130
KDUX 140155Z AUTO 34012KT 10SM CLR M01/M13 A3018 RMK AO2 T10061130
KDUX 140135Z AUTO 34011KT 10SM CLR 00/M13 A3018 RMK AO2 T10011130
KDUX 140115Z AUTO 34014KT 10SM CLR 01/M13 A3017 RMK AO2 T00071130
KDUX 140055Z AUTO 34018KT 10SM CLR 02/M13 A3016 RMK AO2 T00151131
KDUX 140035Z AUTO 34019G25KT 10SM CLR 02/M13 A3015 RMK AO2 T00211130
KDUX 140015Z AUTO 34021G26KT 10SM CLR 03/M13 A3014 RMK AO2 T00251129
KDUX 132355Z AUTO 34024G31KT 10SM CLR 03/M13 A3013 RMK AO2 T00321130 10069 20032
KDUX 132335Z AUTO 34026G32KT 10SM CLR 04/M13 A3013 RMK AO2 T00371127
KDUX 132315Z AUTO 34027G41KT 10SM CLR 05/M13 A3012 RMK AO2 T00451128
KDUX 132255Z AUTO 35028G38KT 10SM CLR 05/M13 A3011 RMK AO2 T00501128
KDUX 132235Z AUTO 34024G37KT 10SM CLR 06/M13 A3011 RMK AO2 T00551126
KDUX 132215Z AUTO 34033G41KT 10SM CLR 06/M13 A3010 RMK AO2 T00601131
KDUX 132155Z AUTO 35031G41KT 10SM CLR 06/M13 A3010 RMK AO2 T00641129
KDUX 132135Z AUTO 35032G42KT 10SM CLR 06/M13 A3010 RMK AO2 T00641133
KDUX 132115Z AUTO 35035G42KT 10SM CLR 07/M13 A3009 RMK AO2 T00661132
KDUX 132055Z AUTO 35033G41KT 10SM CLR 07/M13 A3009 RMK AO2 T00661130
KDUX 132035Z AUTO 35030G45KT 10SM CLR 07/M12 A3008 RMK AO2 T00661122
KDUX 132015Z AUTO 35033G42KT 10SM CLR 07/M12 A3008 RMK AO2 T00661124
KDUX 131955Z AUTO 35032G45KT 10SM CLR 07/M12 A3008 RMK AO2 T00651120
KDUX 131935Z AUTO 35034G43KT 10SM SCT006 06/M11 A3008 RMK AO2 T00631113
KDUX 131915Z AUTO 35030G47KT 10SM CLR 06/M12 A3008 RMK AO2 T00601117
KDUX 131855Z AUTO 34036G46KT 10SM CLR 05/M11 A3008 RMK AO2 T00541108
KDUX 131835Z AUTO 34038G44KT 10SM CLR 05/M10 A3008 RMK AO2 T00541097
KDUX 131815Z AUTO 35036G43KT 10SM CLR 05/M09 A3009 RMK AO2 T00501087
KDUX 131755Z AUTO 35037G43KT 10SM CLR 05/M08 A3009 RMK AO2 T00451083 10045 20025
KDUX 131735Z AUTO 35034G46KT 10SM CLR 04/M09 A3010 RMK AO2 T00391086
KDUX 131715Z AUTO 34036G45KT 10SM CLR 04/M09 A3010 RMK AO2 T00351088
KDUX 131655Z AUTO 35034G42KT 10SM CLR 03/M08 A3009 RMK AO2 T00301085
KDUX 131635Z AUTO 34032G45KT 10SM CLR 03/M08 A3009 RMK AO2 T00291081
KDUX 131615Z AUTO 34034G43KT 10SM CLR 03/M08 A3007 RMK AO2 T00281080
KDUX 131555Z AUTO 35030G45KT 10SM CLR 03/M08 A3006 RMK AO2 T00261084
KDUX 131535Z AUTO 35033G44KT 10SM CLR 03/M09 A3004 RMK AO2 T00251089
KDUX 131515Z AUTO 34032G44KT 10SM CLR 03/M09 A3003 RMK AO2 T00251092
KDUX 131455Z AUTO 34033G44KT 10SM CLR 03/M09 A3002 RMK AO2 T00251091
KDUX 131435Z AUTO 34030G45KT 10SM CLR 03/M09 A3001 RMK AO2 T00251090
KDUX 131415Z AUTO 34029G42KT 10SM CLR 03/M08 A3000 RMK AO2 T00251085
KDUX 131355Z AUTO 34032G43KT 10SM CLR 03/M08 A2998 RMK AO2 T00261078
KDUX 131335Z AUTO 35034G43KT 10SM CLR 03/M07 A2997 RMK AO2 T00271072
KDUX 131315Z AUTO 34031G41KT 10SM CLR 03/M06 A2996 RMK AO2 T00271064
KDUX 131255Z AUTO 35031G42KT 10SM CLR 03/M05 A2994 RMK AO2 T00261053
KDUX 131235Z AUTO 35031G41KT 10SM SCT008 03/M04 A2992 RMK AO2 T00261045
KDUX 131215Z AUTO 34032G42KT 10SM SCT008 SCT027 SCT080 03/M03 A2991 RMK AO2 T00251035
KDUX 131155Z AUTO 34029G41KT 10SM SCT027 BKN090 03/M03 A2991 RMK AO2 T00251032 10057 20010
KDUX 131135Z AUTO 34035G47KT 10SM SCT090 03/M04 A2988 RMK AO2 T00281041
KDUX 131115Z AUTO 35036G48KT 10SM SCT100 03/M04 A2986 RMK AO2 T00281040
KDUX 131055Z AUTO 35036G45KT 10SM SCT006 SCT010 BKN100 03/M03 A2986 RMK AO2 T00271031
KDUX 131035Z AUTO 35035G44KT 10SM BKN100 03/M03 A2985 RMK AO2 T00301026
KDUX 131015Z AUTO 35031G43KT 10SM SCT100 03/M03 A2984 RMK AO2 T00311026
KDUX 130955Z AUTO 34031G41KT 10SM CLR 03/M03 A2982 RMK AO2 T00321028
KDUX 130935Z AUTO 34037G43KT 10SM CLR 03/M03 A2981 RMK AO2 T00301034
KDUX 130915Z AUTO 34031G41KT 10SM CLR 03/M04 A2981 RMK AO2 T00301045
KDUX 130855Z AUTO 34030G38KT 10SM CLR 02/M06 A2980 RMK AO2 T00241057
KDUX 130835Z AUTO 34028G35KT 10SM CLR 02/M05 A2978 RMK AO2 T00151053
KDUX 130815Z AUTO 34025G31KT 10SM CLR 01/M04 A2975 RMK AO2 T00121043
KDUX 130755Z AUTO 34028G35KT 10SM CLR 02/M06 A2973 RMK AO2 T00161060
KDUX 130735Z AUTO 34025G29KT 10SM CLR 03/M06 A2970 RMK AO2 T00321062
KDUX 130715Z AUTO 33022G28KT 10SM CLR 03/M07 A2968 RMK AO2 T00281070
KDUX 130655Z AUTO 34022G26KT 10SM CLR 05/M07 A2965 RMK AO2 T00511068